KWYS/WYS METAR and TAF weather

Enter ICAO airport designator
Station Type Date Time Source
KWYS METAR 2019/12/09 13:45 UTC NOAA

KWYS 091345Z AUTO 00000KT 8SM OVC003 M18/M19 A2999 RMK AO2


Station Type Date Time Source
KWYS Decoded METAR 2019/12/09 13:45 UTC NOAA

West Yellowstone, MT, United States (KWYS) 44-41N 111-07W
Dec 09, 2019 - 08:45 AM EST / 2019.12.09 1345 UTC
Wind: Calm:0
Visibility: 8 mile(s):0
Sky conditions: overcast
Temperature: 0 F (-18 C)
Dew Point: -2 F (-19 C)
Relative Humidity: 91%
Pressure (altimeter): 29.99 in. Hg (1015 hPa)
ob: KWYS 091345Z AUTO 00000KT 8SM OVC003 M18/M19 A2999 RMK AO2
cycle: 14

Station Type Date Time Source
KWYS TAF 2019/12/09 12:35 UTC NOAA

TAF KWYS 091135Z 0912/1012 VRB03KT 4SM BR SCT015 OVC030
TEMPO 0912/0916 1/4SM FZFG BKN002
FM091800 VRB05KT P6SM FEW040 SCT080
FM100100 VRB04KT P6SM SCT020 BKN040
FM100900 VRB03KT 1SM BR BKN015

Example: see airport list